createdAt,value
2022-11-28T00:01:45.045Z,100713.47
2022-11-28T00:04:13.504Z,100721.56
2022-11-28T00:06:42.913Z,100716.19
2022-11-28T00:09:10.264Z,100713.34
2022-11-28T00:11:39.379Z,100720.44
2022-11-28T00:14:07.684Z,100719.47
2022-11-28T00:16:35.741Z,100723.72
2022-11-28T00:19:06.002Z,100717.63
2022-11-28T00:21:33.855Z,100731.81
2022-11-28T00:24:01.953Z,100724.72
2022-11-28T00:26:32.099Z,100722.03
2022-11-28T00:29:02.236Z,100721.88
2022-11-28T00:31:32.363Z,100714.94
2022-11-28T00:34:00.121Z,100713.94
2022-11-28T00:36:29.488Z,100712.06
2022-11-28T00:38:56.886Z,100716.75
2022-11-28T00:41:27.206Z,100711.09
2022-11-28T00:43:55.268Z,100714.78
2022-11-28T00:46:23.845Z,100711.38
2022-11-28T00:48:51.670Z,100719.34
2022-11-28T00:51:21.272Z,100713.53
2022-11-28T00:53:52.089Z,100719.16
2022-11-28T00:56:23.463Z,100720.03
2022-11-28T00:58:51.350Z,100724.00
2022-11-28T01:01:21.624Z,100722.28
2022-11-28T01:03:51.367Z,100708.69
2022-11-28T01:06:22.151Z,100716.81
2022-11-28T01:08:51.603Z,100725.13
2022-11-28T01:11:19.584Z,100711.09
2022-11-28T01:13:46.979Z,100714.47
2022-11-28T01:16:15.022Z,100712.53
2022-11-28T01:18:42.694Z,100708.84
2022-11-28T01:21:10.658Z,100717.06
2022-11-28T01:23:39.499Z,100709.97
2022-11-28T01:26:10.101Z,100710.66
2022-11-28T01:28:37.456Z,100707.97
2022-11-28T01:31:06.165Z,100711.94
2022-11-28T01:33:33.677Z,100711.09
2022-11-28T01:36:01.687Z,100709.22
2022-11-28T01:38:29.603Z,100709.38
2022-11-28T01:40:57.043Z,100713.66
2022-11-28T01:43:25.913Z,100702.59
2022-11-28T01:45:54.140Z,100711.66
2022-11-28T01:48:30.987Z,100706.56
2022-11-28T01:51:02.397Z,100699.34
2022-11-28T01:53:33.066Z,100689.81
2022-11-28T01:56:06.577Z,100693.63
2022-11-28T01:58:39.117Z,100696.78
2022-11-28T02:01:07.310Z,100695.47
2022-11-28T02:03:41.254Z,100700.75
2022-11-28T02:06:10.015Z,100691.38
2022-11-28T02:08:37.415Z,100705.16
2022-11-28T02:11:37.833Z,100704.88
2022-11-28T02:14:17.254Z,100693.09
2022-11-28T02:16:57.277Z,100695.19
2022-11-28T02:20:02.736Z,100697.19
2022-11-28T02:22:35.795Z,100697.94
2022-11-28T02:25:25.726Z,100698.34
2022-11-28T02:28:20.784Z,100691.94
2022-11-28T02:30:58.063Z,100698.19
2022-11-28T02:33:31.955Z,100698.88
2022-11-28T02:36:10.812Z,100719.63
2022-11-28T02:38:54.639Z,100709.72
2022-11-28T02:41:30.903Z,100719.16
2022-11-28T02:44:06.815Z,100717.63
2022-11-28T02:46:42.936Z,100733.22
2022-11-28T02:49:17.025Z,100726.72
2022-11-28T02:51:49.257Z,100724.72
2022-11-28T02:54:18.446Z,100732.09
2022-11-28T02:56:48.007Z,100729.78
2022-11-28T02:59:44.565Z,100736.03
2022-11-28T03:02:15.811Z,100731.81
2022-11-28T03:04:53.262Z,100730.53
2022-11-28T03:07:42.098Z,100735.47
2022-11-28T03:10:19.596Z,100732.66
2022-11-28T03:12:57.324Z,100735.94
2022-11-28T03:15:31.988Z,100731.28
2022-11-28T03:18:07.931Z,100735.09
2022-11-28T03:20:45.382Z,100731.22
2022-11-28T03:23:16.738Z,100730.69
2022-11-28T03:25:56.310Z,100734.94
2022-11-28T03:28:27.211Z,100734.22
2022-11-28T03:31:00.174Z,100728.41
2022-11-28T03:33:31.735Z,100734.09
2022-11-28T03:36:06.201Z,100729.13
2022-11-28T03:38:37.882Z,100728.09
2022-11-28T03:41:11.104Z,100735.75
2022-11-28T03:43:43.239Z,100734.38
2022-11-28T03:46:15.946Z,100747.69
2022-11-28T03:48:47.832Z,100747.28
2022-11-28T03:51:19.161Z,100742.31
2022-11-28T03:53:53.577Z,100743.59
2022-11-28T03:56:25.160Z,100749.28
2022-11-28T03:58:58.232Z,100744.88
2022-11-28T04:01:34.408Z,100750.28
2022-11-28T04:04:14.520Z,100743.50
2022-11-28T04:06:54.505Z,100744.75
2022-11-28T04:09:36.258Z,100748.91
2022-11-28T04:12:09.915Z,100748.47
2022-11-28T04:14:44.487Z,100748.16
2022-11-28T04:17:18.116Z,100743.22
2022-11-28T04:19:50.891Z,100741.25
2022-11-28T04:22:23.908Z,100731.81
2022-11-28T04:24:54.934Z,100732.09
2022-11-28T04:27:27.213Z,100734.22
2022-11-28T04:29:59.027Z,100732.09
2022-11-28T04:32:28.928Z,100723.34
2022-11-28T04:35:00.028Z,100735.50
2022-11-28T04:37:30.527Z,100735.94
2022-11-28T04:40:00.179Z,100733.81
2022-11-28T04:42:32.374Z,100736.66
2022-11-28T04:45:08.838Z,100736.09
2022-11-28T04:47:36.353Z,100737.06
2022-11-28T04:50:04.471Z,100738.88
2022-11-28T04:52:39.264Z,100737.91
2022-11-28T04:55:12.237Z,100731.97
2022-11-28T04:57:42.787Z,100739.91
2022-11-28T05:00:12.908Z,100732.22
2022-11-28T05:02:43.600Z,100740.59
2022-11-28T05:05:14.015Z,100739.06
2022-11-28T05:07:43.000Z,100739.06
2022-11-28T05:10:11.859Z,100733.09
2022-11-28T05:12:39.490Z,100743.19
2022-11-28T05:15:08.146Z,100747.00
2022-11-28T05:17:41.745Z,100754.09
2022-11-28T05:20:10.382Z,100752.38
2022-11-28T05:22:37.750Z,100751.09
2022-11-28T05:25:07.373Z,100760.59
2022-11-28T05:27:34.827Z,100758.56
2022-11-28T05:30:02.210Z,100752.34
2022-11-28T05:32:30.048Z,100757.44
2022-11-28T05:34:57.431Z,100760.84
2022-11-28T05:37:25.553Z,100760.25
2022-11-28T05:39:52.897Z,100761.84
2022-11-28T05:42:21.787Z,100762.53
2022-11-28T05:44:49.166Z,100755.28
2022-11-28T05:47:16.554Z,100765.53
2022-11-28T05:49:44.141Z,100772.16
2022-11-28T05:52:11.711Z,100764.59
2022-11-28T05:54:39.059Z,100762.47
2022-11-28T05:57:06.400Z,100768.03
2022-11-28T05:59:35.569Z,100773.53
2022-11-28T06:02:03.044Z,100774.13
2022-11-28T06:04:30.437Z,100769.13
2022-11-28T06:06:57.850Z,100775.25
2022-11-28T06:09:26.197Z,100770.75
2022-11-28T06:11:53.766Z,100779.44
2022-11-28T06:14:21.089Z,100775.16
2022-11-28T06:16:49.972Z,100779.06
2022-11-28T06:19:18.504Z,100780.50
2022-11-28T06:21:45.924Z,100768.22
2022-11-28T06:24:13.228Z,100777.19
2022-11-28T06:26:40.547Z,100772.22
2022-11-28T06:29:07.895Z,100777.72
2022-11-28T06:31:35.416Z,100772.34
2022-11-28T06:34:04.786Z,100771.34
2022-11-28T06:36:32.688Z,100779.41
2022-11-28T06:39:00.021Z,100780.72
2022-11-28T06:41:27.850Z,100786.50
2022-11-28T06:43:55.961Z,100787.44
2022-11-28T06:46:24.113Z,100786.63
2022-11-28T06:48:52.335Z,100792.06
2022-11-28T06:51:21.616Z,100783.13
2022-11-28T06:53:49.878Z,100792.06
2022-11-28T06:56:19.660Z,100785.81
2022-11-28T06:58:47.199Z,100784.25
2022-11-28T07:01:16.498Z,100784.94
2022-11-28T07:03:44.228Z,100776.59
2022-11-28T07:06:13.646Z,100772.63
2022-11-28T07:08:42.875Z,100768.56
2022-11-28T07:11:12.571Z,100770.53
2022-11-28T07:13:39.841Z,100766.31
2022-11-28T07:16:08.578Z,100768.22
2022-11-28T07:18:35.971Z,100768.94
2022-11-28T07:21:03.593Z,100777.56
2022-11-28T07:23:31.269Z,100776.72
2022-11-28T07:26:00.972Z,100778.66
2022-11-28T07:28:28.305Z,100770.50
2022-11-28T07:31:00.413Z,100766.50
2022-11-28T07:33:27.890Z,100767.66
2022-11-28T07:35:55.360Z,100766.94
2022-11-28T07:38:22.733Z,100764.59
2022-11-28T07:40:50.193Z,100772.66
2022-11-28T07:43:19.060Z,100768.22
2022-11-28T07:46:00.127Z,100769.28
2022-11-28T07:48:28.142Z,100771.88
2022-11-28T07:50:55.604Z,100770.97
2022-11-28T07:53:23.016Z,100776.56
2022-11-28T07:55:50.352Z,100769.06
2022-11-28T07:58:19.132Z,100767.34
2022-11-28T08:00:46.469Z,100767.78
2022-11-28T08:03:14.025Z,100771.44
2022-11-28T08:05:41.390Z,100770.91
2022-11-28T08:08:08.839Z,100772.47
2022-11-28T08:10:36.249Z,100764.78
2022-11-28T08:13:04.044Z,100763.34
2022-11-28T08:15:33.351Z,100760.19
2022-11-28T08:18:00.729Z,100769.28
2022-11-28T08:20:28.071Z,100765.56
2022-11-28T08:22:55.436Z,100766.16
2022-11-28T08:25:22.734Z,100762.75
2022-11-28T08:27:50.035Z,100768.84
2022-11-28T08:30:17.527Z,100767.69
2022-11-28T08:32:46.264Z,100770.66
2022-11-28T08:35:14.116Z,100772.38
2022-11-28T08:37:41.487Z,100767.84
2022-11-28T08:40:09.547Z,100765.16
2022-11-28T08:42:37.205Z,100767.84
2022-11-28T08:45:05.386Z,100766.41
2022-11-28T08:47:32.876Z,100767.69
2022-11-28T08:50:01.676Z,100763.16
2022-11-28T08:52:29.611Z,100765.44
2022-11-28T08:54:57.131Z,100764.88
2022-11-28T08:57:24.498Z,100766.31
2022-11-28T08:59:51.855Z,100765.16
2022-11-28T09:02:24.484Z,100767.56
2022-11-28T09:04:53.227Z,100762.72
2022-11-28T09:07:22.256Z,100767.84
2022-11-28T09:09:49.801Z,100763.88
2022-11-28T09:12:17.743Z,100761.75
2022-11-28T09:14:45.054Z,100761.19
2022-11-28T09:17:12.403Z,100766.31
2022-11-28T09:19:40.568Z,100757.91
2022-11-28T09:22:08.605Z,100761.38
2022-11-28T09:24:37.587Z,100755.25
2022-11-28T09:27:04.946Z,100753.81
2022-11-28T09:29:32.277Z,100753.34
2022-11-28T09:31:59.732Z,100755.25
2022-11-28T09:34:27.072Z,100759.72
2022-11-28T09:36:54.425Z,100761.44
2022-11-28T09:39:21.787Z,100759.72
2022-11-28T09:42:05.051Z,100757.03
2022-11-28T09:44:41.550Z,100768.22
2022-11-28T09:47:17.301Z,100762.53
2022-11-28T09:49:49.124Z,100764.13
2022-11-28T09:52:26.830Z,100761.13
2022-11-28T09:55:05.116Z,100753.47
2022-11-28T09:57:39.200Z,100754.44
2022-11-28T10:00:12.551Z,100760.25
2022-11-28T10:02:47.743Z,100757.44
2022-11-28T10:05:24.681Z,100756.31
2022-11-28T10:08:09.809Z,100745.53
2022-11-28T10:10:44.540Z,100745.66
2022-11-28T10:13:18.532Z,100734.75
2022-11-28T10:15:52.648Z,100739.72
2022-11-28T10:18:38.071Z,100744.97
2022-11-28T10:21:18.289Z,100742.28
2022-11-28T10:23:48.161Z,100743.16
2022-11-28T10:26:21.264Z,100731.03
2022-11-28T10:28:53.921Z,100735.88
2022-11-28T10:31:31.403Z,100731.06
2022-11-28T10:34:06.151Z,100736.44
2022-11-28T10:36:44.869Z,100739.31
2022-11-28T10:39:13.293Z,100742.41
2022-11-28T10:41:46.512Z,100741.84
2022-11-28T10:44:23.691Z,100741.00
2022-11-28T10:46:59.840Z,100735.19
2022-11-28T10:49:35.825Z,100740.00
2022-11-28T10:52:12.228Z,100735.56
2022-11-28T10:55:04.135Z,100736.41
2022-11-28T10:57:38.676Z,100751.78
2022-11-28T11:00:11.899Z,100747.81
2022-11-28T11:02:44.556Z,100746.69
2022-11-28T11:05:15.222Z,100749.25
2022-11-28T11:07:49.303Z,100749.22
2022-11-28T11:10:19.221Z,100753.38
2022-11-28T11:12:47.159Z,100752.19
2022-11-28T11:15:19.721Z,100747.69
2022-11-28T11:17:47.543Z,100746.09
2022-11-28T11:20:34.578Z,100745.84
2022-11-28T11:23:11.929Z,100739.28
2022-11-28T11:25:47.482Z,100740.56
2022-11-28T11:28:32.536Z,100745.69
2022-11-28T11:31:04.308Z,100749.22
2022-11-28T11:33:35.170Z,100746.25
2022-11-28T11:36:04.664Z,100750.78
2022-11-28T11:38:37.945Z,100749.09
2022-11-28T11:41:27.670Z,100739.00
2022-11-28T11:43:55.236Z,100743.56
2022-11-28T11:46:24.080Z,100746.81
2022-11-28T11:48:53.359Z,100744.41
2022-11-28T11:51:26.000Z,100748.09
2022-11-28T11:54:04.962Z,100741.56
2022-11-28T11:56:36.409Z,100743.69
2022-11-28T11:59:11.126Z,100742.41
2022-11-28T12:01:42.471Z,100734.75
2022-11-28T12:04:43.324Z,100743.41
2022-11-28T12:07:10.991Z,100741.28
2022-11-28T12:09:43.580Z,100743.84
2022-11-28T12:12:16.304Z,100742.84
2022-11-28T12:14:44.771Z,100739.00
2022-11-28T12:17:47.892Z,100736.88
2022-11-28T12:20:35.714Z,100736.13
2022-11-28T12:23:17.007Z,100738.41
2022-11-28T12:25:49.163Z,100746.09
2022-11-28T12:28:29.580Z,100737.81
2022-11-28T12:31:09.277Z,100742.06
2022-11-28T12:33:44.440Z,100741.31
2022-11-28T12:36:19.564Z,100735.81
2022-11-28T12:38:59.631Z,100734.69
2022-11-28T12:41:46.936Z,100735.41
2022-11-28T12:44:27.129Z,100737.81
2022-11-28T12:47:03.604Z,100743.22
2022-11-28T12:49:42.999Z,100746.38
2022-11-28T12:52:25.247Z,100749.06
2022-11-28T12:55:05.769Z,100748.34
2022-11-28T12:57:42.948Z,100745.66
2022-11-28T13:00:14.684Z,100750.59
2022-11-28T13:02:56.134Z,100745.78
2022-11-28T13:05:41.300Z,100751.47
2022-11-28T13:08:30.091Z,100747.78
2022-11-28T13:11:06.483Z,100752.56
2022-11-28T13:13:39.927Z,100745.50
2022-11-28T13:16:16.903Z,100748.78
2022-11-28T13:18:49.400Z,100742.38
2022-11-28T13:21:28.150Z,100745.38
2022-11-28T13:24:03.855Z,100737.28
2022-11-28T13:26:43.776Z,100738.84
2022-11-28T13:29:23.937Z,100727.91
2022-11-28T13:32:01.764Z,100732.03
2022-11-28T13:34:30.456Z,100727.78
2022-11-28T13:39:54.825Z,100731.22
2022-11-28T13:45:31.652Z,100728.78
2022-11-28T13:48:01.176Z,100725.09
2022-11-28T13:50:36.757Z,100730.38
2022-11-28T13:53:21.633Z,100723.97
2022-11-28T13:55:51.251Z,100712.47
2022-11-28T13:58:28.341Z,100718.56
2022-11-28T14:01:08.300Z,100727.50
2022-11-28T14:03:36.865Z,100715.75
2022-11-28T14:06:07.219Z,100716.28
2022-11-28T14:08:39.197Z,100713.06
2022-11-28T14:11:27.603Z,100716.88
2022-11-28T14:14:24.560Z,100717.44
2022-11-28T14:17:09.803Z,100715.88
2022-11-28T14:19:51.133Z,100718.88
2022-11-28T14:22:32.048Z,100714.88
2022-11-28T14:25:08.789Z,100713.75
2022-11-28T14:27:40.121Z,100717.13
2022-11-28T14:30:24.440Z,100724.25
2022-11-28T14:32:59.928Z,100714.03
2022-11-28T14:36:04.083Z,100712.06
2022-11-28T14:38:45.348Z,100711.19
2022-11-28T14:41:15.866Z,100713.75
2022-11-28T14:43:45.505Z,100706.91
2022-11-28T14:46:29.227Z,100708.09
2022-11-28T14:49:17.301Z,100712.47
2022-11-28T14:52:30.692Z,100712.59
2022-11-28T14:54:55.485Z,100715.88
2022-11-28T14:57:27.054Z,100715.88
2022-11-28T14:59:57.098Z,100721.41
2022-11-28T15:03:01.655Z,100717.44
2022-11-28T15:05:39.877Z,100713.31
2022-11-28T15:08:28.528Z,100711.88
2022-11-28T15:11:16.704Z,100708.34
2022-11-28T15:14:00.299Z,100707.09
2022-11-28T15:16:30.782Z,100699.00
2022-11-28T15:19:02.630Z,100704.78
2022-11-28T15:21:30.722Z,100697.41
2022-11-28T15:23:58.333Z,100707.34
2022-11-28T15:26:28.568Z,100696.84
2022-11-28T15:29:10.474Z,100694.44
2022-11-28T15:31:38.180Z,100701.22
2022-11-28T15:34:09.214Z,100702.97
2022-11-28T15:36:38.584Z,100702.38
2022-11-28T15:39:25.729Z,100709.22
2022-11-28T15:41:54.824Z,100705.81
2022-11-28T15:44:24.225Z,100700.00
2022-11-28T15:46:51.969Z,100700.97
2022-11-28T15:49:28.975Z,100706.09
2022-11-28T15:51:58.358Z,100702.81
2022-11-28T15:54:34.393Z,100699.25
2022-11-28T15:57:02.538Z,100700.69
2022-11-28T15:59:31.695Z,100695.72
2022-11-28T16:02:02.994Z,100698.25
2022-11-28T16:04:31.499Z,100695.88
2022-11-28T16:07:01.052Z,100696.56
2022-11-28T16:09:32.585Z,100690.19
2022-11-28T16:12:01.716Z,100697.72
2022-11-28T16:14:33.088Z,100690.47
2022-11-28T16:17:03.376Z,100693.28
2022-11-28T16:19:34.418Z,100695.97
2022-11-28T16:22:03.980Z,100691.47
2022-11-28T16:24:37.011Z,100692.88
2022-11-28T16:27:06.539Z,100686.63
2022-11-28T16:29:37.044Z,100682.06
2022-11-28T16:32:08.856Z,100684.22
2022-11-28T16:34:47.382Z,100688.59
2022-11-28T16:37:20.281Z,100695.84
2022-11-28T16:40:04.519Z,100684.63
2022-11-28T16:42:33.904Z,100687.91
2022-11-28T16:45:10.403Z,100683.66
2022-11-28T16:47:38.240Z,100686.75
2022-11-28T16:50:17.786Z,100684.22
2022-11-28T16:52:53.245Z,100692.16
2022-11-28T16:55:39.450Z,100691.59
2022-11-28T16:58:12.612Z,100693.03
2022-11-28T17:00:44.164Z,100687.91
2022-11-28T17:03:37.630Z,100683.94
2022-11-28T17:06:05.646Z,100681.97
2022-11-28T17:08:33.199Z,100690.88
2022-11-28T17:11:00.732Z,100690.06
2022-11-28T17:13:28.742Z,100692.00
2022-11-28T17:15:57.912Z,100691.59
2022-11-28T17:18:25.871Z,100682.50
2022-11-28T17:20:53.958Z,100680.97
2022-11-28T17:23:21.600Z,100684.22
2022-11-28T17:25:49.335Z,100686.06
2022-11-28T17:28:22.360Z,100675.41
2022-11-28T17:30:54.792Z,100673.44
2022-11-28T17:33:24.922Z,100677.25
2022-11-28T17:35:54.553Z,100673.56
2022-11-28T17:38:22.396Z,100681.53
2022-11-28T17:40:50.157Z,100678.97
2022-11-28T17:43:18.918Z,100676.97
2022-11-28T17:45:47.426Z,100680.38
2022-11-28T17:48:15.688Z,100681.66
2022-11-28T17:50:47.095Z,100684.38
2022-11-28T17:53:20.276Z,100682.63
2022-11-28T17:55:49.374Z,100685.34
2022-11-28T17:58:19.922Z,100674.69
2022-11-28T18:00:48.628Z,100665.78
2022-11-28T18:03:18.054Z,100671.00
2022-11-28T18:05:49.544Z,100671.16
2022-11-28T18:08:22.076Z,100668.47
2022-11-28T18:10:50.028Z,100672.16
2022-11-28T18:13:18.605Z,100677.09
2022-11-28T18:15:48.311Z,100678.97
2022-11-28T18:18:15.922Z,100683.06
2022-11-28T18:20:43.371Z,100686.94
2022-11-28T18:23:12.915Z,100682.25
2022-11-28T18:25:42.518Z,100677.69
2022-11-28T18:28:17.246Z,100674.16
2022-11-28T18:30:48.682Z,100673.00
2022-11-28T18:33:17.154Z,100674.97
2022-11-28T18:35:44.819Z,100668.88
2022-11-28T18:38:14.243Z,100668.88
2022-11-28T18:40:41.809Z,100667.19
2022-11-28T18:43:09.228Z,100674.97
2022-11-28T18:45:36.983Z,100668.31
2022-11-28T18:48:05.226Z,100663.50
2022-11-28T18:50:35.531Z,100666.88
2022-11-28T18:53:03.173Z,100662.34
2022-11-28T18:55:32.255Z,100666.88
2022-11-28T18:57:59.705Z,100666.75
2022-11-28T19:00:27.146Z,100664.94
2022-11-28T19:02:55.190Z,100664.19
2022-11-28T19:05:23.536Z,100659.94
2022-11-28T19:07:51.348Z,100660.38
2022-11-28T19:10:19.185Z,100659.94
2022-11-28T19:12:48.402Z,100659.78
2022-11-28T19:15:16.072Z,100660.09
2022-11-28T19:17:43.559Z,100666.75
2022-11-28T19:20:12.143Z,100671.28
2022-11-28T19:22:39.703Z,100659.78
2022-11-28T19:25:08.567Z,100662.34
2022-11-28T19:27:36.045Z,100661.50
2022-11-28T19:30:06.230Z,100660.78
2022-11-28T19:32:34.777Z,100666.88
2022-11-28T19:35:02.270Z,100674.97
2022-11-28T19:37:29.903Z,100675.84
2022-11-28T19:40:02.198Z,100673.16
2022-11-28T19:42:30.112Z,100678.53
2022-11-28T19:44:58.477Z,100676.84
2022-11-28T19:47:27.629Z,100674.28
2022-11-28T19:49:55.254Z,100669.59
2022-11-28T19:52:22.739Z,100673.16
2022-11-28T19:54:50.561Z,100672.16
2022-11-28T19:57:18.482Z,100666.31
2022-11-28T19:59:46.266Z,100669.00
2022-11-28T20:02:13.984Z,100660.66
2022-11-28T20:04:42.904Z,100668.59
2022-11-28T20:07:10.700Z,100655.25
2022-11-28T20:09:38.345Z,100653.69
2022-11-28T20:12:06.477Z,100659.78
2022-11-28T20:14:34.866Z,100652.56
2022-11-28T20:17:03.291Z,100658.22
2022-11-28T20:19:31.503Z,100656.09
2022-11-28T20:22:00.318Z,100661.50
2022-11-28T20:24:27.699Z,100657.09
2022-11-28T20:26:55.112Z,100653.56
2022-11-28T20:29:24.060Z,100650.13
2022-11-28T20:31:51.429Z,100648.44
2022-11-28T20:34:19.427Z,100648.44
2022-11-28T20:36:52.058Z,100647.59
2022-11-28T20:39:21.895Z,100643.78
2022-11-28T20:41:49.731Z,100641.22
2022-11-28T20:44:17.899Z,100637.66
2022-11-28T20:46:45.231Z,100629.56
2022-11-28T20:49:13.861Z,100632.53
2022-11-28T20:51:41.777Z,100627.72
2022-11-28T20:54:11.658Z,100626.03
2022-11-28T20:59:27.944Z,100622.63
2022-11-28T21:01:55.342Z,100627.03
2022-11-28T21:04:22.795Z,100621.63
2022-11-28T21:06:50.344Z,100616.38
2022-11-28T21:09:17.752Z,100624.44
2022-11-28T21:12:01.798Z,100621.63
2022-11-28T21:14:29.306Z,100616.22
2022-11-28T21:16:57.539Z,100620.75
2022-11-28T21:19:25.018Z,100618.50
2022-11-28T21:21:52.389Z,100615.78
2022-11-28T21:24:20.432Z,100614.78
2022-11-28T21:26:53.994Z,100618.50
2022-11-28T21:29:23.082Z,100618.34
2022-11-28T21:31:50.535Z,100605.31
2022-11-28T21:34:17.968Z,100610.41
2022-11-28T21:36:45.410Z,100605.88
2022-11-28T21:39:14.574Z,100615.78
2022-11-28T21:41:41.941Z,100611.41
2022-11-28T21:44:10.980Z,100610.56
2022-11-28T21:46:38.358Z,100606.13
2022-11-28T21:49:05.995Z,100603.59
2022-11-28T21:51:38.212Z,100599.03
2022-11-28T21:54:06.497Z,100593.81
2022-11-28T21:56:34.241Z,100600.91
2022-11-28T21:59:01.748Z,100594.94
2022-11-28T22:01:31.076Z,100593.81
2022-11-28T22:04:02.333Z,100595.06
2022-11-28T22:06:30.106Z,100594.94
2022-11-28T22:08:57.704Z,100591.38
2022-11-28T22:11:26.038Z,100589.69
2022-11-28T22:13:53.347Z,100593.38
2022-11-28T22:16:23.592Z,100589.69
2022-11-28T22:18:54.940Z,100582.47
2022-11-28T22:21:50.726Z,100588.84
2022-11-28T22:24:10.371Z,100582.59
2022-11-28T22:26:38.449Z,100581.75
2022-11-28T22:29:05.810Z,100572.66
2022-11-28T22:31:33.855Z,100577.19
2022-11-28T22:34:02.670Z,100571.09
2022-11-28T22:36:30.428Z,100571.25
2022-11-28T22:38:58.890Z,100574.81
2022-11-28T22:41:29.258Z,100577.50
2022-11-28T22:43:59.736Z,100565.00
2022-11-28T22:46:28.179Z,100572.25
2022-11-28T22:48:55.700Z,100574.81
2022-11-28T22:51:26.534Z,100574.09
2022-11-28T22:53:54.796Z,100569.66
2022-11-28T22:56:24.751Z,100578.63
2022-11-28T22:58:52.904Z,100568.72
2022-11-28T23:01:23.063Z,100564.28
2022-11-28T23:03:50.891Z,100578.63
2022-11-28T23:06:20.632Z,100573.81
2022-11-28T23:08:56.776Z,100561.88
2022-11-28T23:11:28.834Z,100566.00
2022-11-28T23:13:56.419Z,100570.25
2022-11-28T23:16:26.230Z,100572.81
2022-11-28T23:18:56.647Z,100559.47
2022-11-28T23:21:24.469Z,100569.41
2022-11-28T23:23:52.099Z,100561.16
2022-11-28T23:26:24.718Z,100550.66
2022-11-28T23:28:54.115Z,100560.31
2022-11-28T23:31:24.307Z,100551.53
2022-11-28T23:33:52.508Z,100555.22
2022-11-28T23:36:21.845Z,100557.63
2022-11-28T23:38:51.632Z,100553.94
2022-11-28T23:41:19.348Z,100551.38
2022-11-28T23:43:49.266Z,100560.44
2022-11-28T23:46:18.960Z,100555.06
2022-11-28T23:48:47.017Z,100557.91
2022-11-28T23:51:17.108Z,100552.38
2022-11-28T23:53:44.699Z,100550.53
2022-11-28T23:56:14.026Z,100547.97
2022-11-28T23:58:42.417Z,100546.97
